sensor_id;sensor_type;location;lat;lon;timestamp;pressure;altitude;pressure_sealevel;temperature;humidity
29903;BME280;30288;50.514;9.678;2023-02-24T00:00:37;98343.16;;;7.41;100.00
29903;BME280;30288;50.514;9.678;2023-02-24T00:02:52;98341.16;;;7.55;100.00
29903;BME280;30288;50.514;9.678;2023-02-24T00:04:58;98336.28;;;7.49;100.00
29903;BME280;30288;50.514;9.678;2023-02-24T00:07:03;98334.69;;;7.45;100.00
29903;BME280;30288;50.514;9.678;2023-02-24T00:09:14;98340.69;;;7.38;100.00
29903;BME280;30288;50.514;9.678;2023-02-24T00:11:21;98341.50;;;7.40;100.00
29903;BME280;30288;50.514;9.678;2023-02-24T00:13:26;98340.03;;;7.30;100.00
29903;BME280;30288;50.514;9.678;2023-02-24T00:15:33;98334.75;;;7.42;100.00
29903;BME280;30288;50.514;9.678;2023-02-24T00:17:38;98327.09;;;7.50;100.00
29903;BME280;30288;50.514;9.678;2023-02-24T00:19:45;98328.13;;;7.41;100.00
29903;BME280;30288;50.514;9.678;2023-02-24T00:21:51;98328.25;;;7.35;100.00
29903;BME280;30288;50.514;9.678;2023-02-24T00:23:57;98323.16;;;7.38;100.00
29903;BME280;30288;50.514;9.678;2023-02-24T00:26:07;98312.47;;;7.30;100.00
29903;BME280;30288;50.514;9.678;2023-02-24T00:28:13;98311.75;;;7.25;100.00
29903;BME280;30288;50.514;9.678;2023-02-24T00:30:18;98306.00;;;7.21;100.00
29903;BME280;30288;50.514;9.678;2023-02-24T00:32:25;98294.94;;;7.30;100.00
29903;BME280;30288;50.514;9.678;2023-02-24T00:34:33;98293.38;;;7.26;100.00
29903;BME280;30288;50.514;9.678;2023-02-24T00:36:39;98292.66;;;7.21;100.00
29903;BME280;30288;50.514;9.678;2023-02-24T00:38:44;98296.84;;;7.19;100.00
29903;BME280;30288;50.514;9.678;2023-02-24T00:40:50;98283.41;;;7.23;100.00
29903;BME280;30288;50.514;9.678;2023-02-24T00:42:59;98282.56;;;7.24;100.00
29903;BME280;30288;50.514;9.678;2023-02-24T00:45:06;98281.16;;;7.12;100.00
29903;BME280;30288;50.514;9.678;2023-02-24T00:47:14;98285.56;;;6.99;100.00
29903;BME280;30288;50.514;9.678;2023-02-24T00:49:19;98278.25;;;6.92;100.00
29903;BME280;30288;50.514;9.678;2023-02-24T00:51:25;98284.25;;;6.83;100.00
29903;BME280;30288;50.514;9.678;2023-02-24T00:53:31;98277.66;;;6.79;100.00
29903;BME280;30288;50.514;9.678;2023-02-24T00:55:36;98277.72;;;6.76;100.00
29903;BME280;30288;50.514;9.678;2023-02-24T00:57:41;98278.63;;;6.72;100.00
29903;BME280;30288;50.514;9.678;2023-02-24T00:59:50;98286.25;;;6.66;100.00
29903;BME280;30288;50.514;9.678;2023-02-24T01:01:56;98282.06;;;6.68;100.00
29903;BME280;30288;50.514;9.678;2023-02-24T01:04:03;98274.53;;;6.68;100.00
29903;BME280;30288;50.514;9.678;2023-02-24T01:06:12;98270.38;;;6.69;100.00
29903;BME280;30288;50.514;9.678;2023-02-24T01:08:19;98267.03;;;6.68;100.00
29903;BME280;30288;50.514;9.678;2023-02-24T01:10:25;98264.53;;;6.68;100.00
29903;BME280;30288;50.514;9.678;2023-02-24T01:12:30;98256.22;;;6.68;100.00
29903;BME280;30288;50.514;9.678;2023-02-24T01:14:52;98260.31;;;6.70;100.00
29903;BME280;30288;50.514;9.678;2023-02-24T01:16:58;98251.97;;;6.71;100.00
29903;BME280;30288;50.514;9.678;2023-02-24T01:19:03;98254.28;;;6.80;100.00
29903;BME280;30288;50.514;9.678;2023-02-24T01:21:09;98246.00;;;6.78;100.00
29903;BME280;30288;50.514;9.678;2023-02-24T01:23:15;98239.41;;;6.74;100.00
29903;BME280;30288;50.514;9.678;2023-02-24T01:25:20;98237.69;;;6.76;100.00
29903;BME280;30288;50.514;9.678;2023-02-24T01:27:28;98234.13;;;6.86;100.00
29903;BME280;30288;50.514;9.678;2023-02-24T01:29:34;98233.25;;;6.89;100.00
29903;BME280;30288;50.514;9.678;2023-02-24T01:31:45;98232.47;;;6.85;100.00
29903;BME280;30288;50.514;9.678;2023-02-24T01:33:53;98237.56;;;6.82;100.00
29903;BME280;30288;50.514;9.678;2023-02-24T01:36:08;98229.25;;;6.80;100.00
29903;BME280;30288;50.514;9.678;2023-02-24T01:38:14;98229.31;;;6.77;100.00
29903;BME280;30288;50.514;9.678;2023-02-24T01:40:25;98225.16;;;6.76;100.00
29903;BME280;30288;50.514;9.678;2023-02-24T01:42:30;98219.28;;;6.79;100.00
29903;BME280;30288;50.514;9.678;2023-02-24T01:45:13;98212.59;;;6.79;100.00
29903;BME280;30288;50.514;9.678;2023-02-24T01:47:21;98204.22;;;6.80;100.00
29903;BME280;30288;50.514;9.678;2023-02-24T01:49:35;98207.53;;;6.82;100.00
29903;BME280;30288;50.514;9.678;2023-02-24T01:51:47;98209.22;;;6.80;100.00
29903;BME280;30288;50.514;9.678;2023-02-24T01:53:53;98208.16;;;6.90;100.00
29903;BME280;30288;50.514;9.678;2023-02-24T01:55:58;98209.94;;;6.87;100.00
29903;BME280;30288;50.514;9.678;2023-02-24T01:58:09;98207.53;;;6.82;100.00
29903;BME280;30288;50.514;9.678;2023-02-24T02:00:17;98209.22;;;6.80;100.00
29903;BME280;30288;50.514;9.678;2023-02-24T02:02:46;98205.66;;;6.90;100.00
29903;BME280;30288;50.514;9.678;2023-02-24T02:04:57;98194.81;;;6.91;100.00
29903;BME280;30288;50.514;9.678;2023-02-24T02:07:05;98195.41;;;7.02;100.00
29903;BME280;30288;50.514;9.678;2023-02-24T02:09:12;98188.94;;;6.92;100.00
29903;BME280;30288;50.514;9.678;2023-02-24T02:11:18;98188.75;;;7.00;100.00
29903;BME280;30288;50.514;9.678;2023-02-24T02:13:26;98198.81;;;6.98;100.00
29903;BME280;30288;50.514;9.678;2023-02-24T02:15:42;98191.25;;;7.01;100.00
29903;BME280;30288;50.514;9.678;2023-02-24T02:18:01;98191.75;;;7.16;100.00
29903;BME280;30288;50.514;9.678;2023-02-24T02:20:27;98198.81;;;6.98;100.00
29903;BME280;30288;50.514;9.678;2023-02-24T02:25:50;98193.13;;;6.92;100.00
29903;BME280;30288;50.514;9.678;2023-02-24T02:28:35;98192.00;;;7.03;100.00
29903;BME280;30288;50.514;9.678;2023-02-24T02:31:15;98191.56;;;6.88;100.00
29903;BME280;30288;50.514;9.678;2023-02-24T02:33:56;98190.56;;;6.95;100.00
29903;BME280;30288;50.514;9.678;2023-02-24T02:36:13;98190.78;;;6.84;100.00
29903;BME280;30288;50.514;9.678;2023-02-24T02:38:29;98192.38;;;6.88;100.00
29903;BME280;30288;50.514;9.678;2023-02-24T02:40:38;98184.16;;;6.83;100.00
29903;BME280;30288;50.514;9.678;2023-02-24T02:42:53;98179.97;;;6.84;100.00
29903;BME280;30288;50.514;9.678;2023-02-24T02:45:07;98178.56;;;6.71;100.00
29903;BME280;30288;50.514;9.678;2023-02-24T02:47:20;98168.63;;;6.68;100.00
29903;BME280;30288;50.514;9.678;2023-02-24T02:49:34;98166.34;;;6.57;100.00
29903;BME280;30288;50.514;9.678;2023-02-24T02:51:46;98168.13;;;6.52;100.00
29903;BME280;30288;50.514;9.678;2023-02-24T02:53:58;98166.53;;;6.48;100.00
29903;BME280;30288;50.514;9.678;2023-02-24T02:56:10;98161.63;;;6.43;100.00
29903;BME280;30288;50.514;9.678;2023-02-24T02:58:21;98156.75;;;6.37;100.00
29903;BME280;30288;50.514;9.678;2023-02-24T03:00:32;98146.81;;;6.36;100.00
29903;BME280;30288;50.514;9.678;2023-02-24T03:02:47;98148.50;;;6.34;100.00
29903;BME280;30288;50.514;9.678;2023-02-24T03:04:59;98154.44;;;6.28;100.00
29903;BME280;30288;50.514;9.678;2023-02-24T03:07:06;98152.84;;;6.26;100.00
29903;BME280;30288;50.514;9.678;2023-02-24T03:09:17;98151.19;;;6.25;100.00
29903;BME280;30288;50.514;9.678;2023-02-24T03:11:24;98154.59;;;6.21;100.00
29903;BME280;30288;50.514;9.678;2023-02-24T03:13:39;98155.53;;;6.17;100.00
29903;BME280;30288;50.514;9.678;2023-02-24T03:15:46;98150.63;;;6.10;100.00
29903;BME280;30288;50.514;9.678;2023-02-24T03:17:56;98149.81;;;6.10;100.00
29903;BME280;30288;50.514;9.678;2023-02-24T03:20:12;98145.63;;;6.10;100.00
29903;BME280;30288;50.514;9.678;2023-02-24T03:22:28;98138.31;;;6.03;100.00
29903;BME280;30288;50.514;9.678;2023-02-24T03:24:36;98135.88;;;5.98;100.00
29903;BME280;30288;50.514;9.678;2023-02-24T03:26:51;98129.28;;;5.94;100.00
29903;BME280;30288;50.514;9.678;2023-02-24T03:29:06;98133.56;;;5.86;100.00
29903;BME280;30288;50.514;9.678;2023-02-24T03:31:22;98130.44;;;5.75;100.00
29903;BME280;30288;50.514;9.678;2023-02-24T03:33:34;98126.34;;;5.71;100.00
29903;BME280;30288;50.514;9.678;2023-02-24T03:35:44;98131.34;;;5.71;100.00
29903;BME280;30288;50.514;9.678;2023-02-24T03:37:53;98129.78;;;5.67;100.00
29903;BME280;30288;50.514;9.678;2023-02-24T03:40:06;98124.00;;;5.65;100.00
29903;BME280;30288;50.514;9.678;2023-02-24T03:42:18;98121.53;;;5.62;100.00
29903;BME280;30288;50.514;9.678;2023-02-24T03:44:24;98116.53;;;5.62;100.00
29903;BME280;30288;50.514;9.678;2023-02-24T03:46:30;98117.38;;;5.61;100.00
29903;BME280;30288;50.514;9.678;2023-02-24T03:48:41;98109.19;;;5.56;100.00
29903;BME280;30288;50.514;9.678;2023-02-24T03:50:51;98112.50;;;5.55;100.00
29903;BME280;30288;50.514;9.678;2023-02-24T03:53:24;98110.06;;;5.52;100.00
29903;BME280;30288;50.514;9.678;2023-02-24T03:55:45;98106.81;;;5.47;100.00
29903;BME280;30288;50.514;9.678;2023-02-24T03:58:16;98111.81;;;5.47;100.00
29903;BME280;30288;50.514;9.678;2023-02-24T04:00:28;98108.53;;;5.45;100.00
29903;BME280;30288;50.514;9.678;2023-02-24T04:02:37;98102.69;;;5.46;100.00
29903;BME280;30288;50.514;9.678;2023-02-24T04:04:46;98097.66;;;5.47;100.00
29903;BME280;30288;50.514;9.678;2023-02-24T04:07:07;98097.66;;;5.47;100.00
29903;BME280;30288;50.514;9.678;2023-02-24T04:09:22;98104.22;;;5.51;100.00
29903;BME280;30288;50.514;9.678;2023-02-24T04:11:47;98092.56;;;5.52;100.00
29903;BME280;30288;50.514;9.678;2023-02-24T04:14:00;98085.03;;;5.55;100.00
29903;BME280;30288;50.514;9.678;2023-02-24T04:16:13;98086.63;;;5.60;100.00
29903;BME280;30288;50.514;9.678;2023-02-24T04:18:30;98078.97;;;5.66;100.00
29903;BME280;30288;50.514;9.678;2023-02-24T04:20:37;98078.03;;;5.73;100.00
29903;BME280;30288;50.514;9.678;2023-02-24T04:22:52;98071.22;;;5.80;100.00
29903;BME280;30288;50.514;9.678;2023-02-24T04:25:01;98077.94;;;5.78;100.00
29903;BME280;30288;50.514;9.678;2023-02-24T04:27:17;98066.28;;;5.77;100.00
29903;BME280;30288;50.514;9.678;2023-02-24T04:29:29;98062.94;;;5.78;100.00
29903;BME280;30288;50.514;9.678;2023-02-24T04:31:37;98064.63;;;5.76;100.00
29903;BME280;30288;50.514;9.678;2023-02-24T04:33:43;98067.03;;;5.81;100.00
29903;BME280;30288;50.514;9.678;2023-02-24T04:35:54;98058.00;;;5.75;100.00
29903;BME280;30288;50.514;9.678;2023-02-24T04:38:02;98052.94;;;5.78;100.00
29903;BME280;30288;50.514;9.678;2023-02-24T04:40:11;98046.22;;;5.80;100.00
29903;BME280;30288;50.514;9.678;2023-02-24T04:42:18;98046.22;;;5.80;100.00
29903;BME280;30288;50.514;9.678;2023-02-24T04:44:24;98040.44;;;5.80;100.00
29903;BME280;30288;50.514;9.678;2023-02-24T04:46:30;98037.97;;;5.78;100.00
29903;BME280;30288;50.514;9.678;2023-02-24T04:48:36;98044.66;;;5.76;100.00
29903;BME280;30288;50.514;9.678;2023-02-24T04:50:42;98034.66;;;5.76;100.00
29903;BME280;30288;50.514;9.678;2023-02-24T04:52:49;98038.06;;;5.72;100.00
29903;BME280;30288;50.514;9.678;2023-02-24T04:54:57;98034.72;;;5.73;100.00
29903;BME280;30288;50.514;9.678;2023-02-24T04:57:09;98041.41;;;5.71;100.00
29903;BME280;30288;50.514;9.678;2023-02-24T04:59:14;98038.84;;;5.76;100.00
29903;BME280;30288;50.514;9.678;2023-02-24T05:01:19;98030.50;;;5.77;100.00
29903;BME280;30288;50.514;9.678;2023-02-24T05:03:25;98036.97;;;5.85;100.00
29903;BME280;30288;50.514;9.678;2023-02-24T05:05:32;98041.03;;;5.92;100.00
29903;BME280;30288;50.514;9.678;2023-02-24T05:07:37;98040.13;;;5.96;100.00
29903;BME280;30288;50.514;9.678;2023-02-24T05:09:42;98035.28;;;5.89;100.00
29903;BME280;30288;50.514;9.678;2023-02-24T05:11:51;98034.53;;;5.82;100.00
29903;BME280;30288;50.514;9.678;2023-02-24T05:13:56;98031.25;;;5.80;100.00
29903;BME280;30288;50.514;9.678;2023-02-24T05:16:05;98027.91;;;5.81;100.00
29903;BME280;30288;50.514;9.678;2023-02-24T05:18:13;98024.56;;;5.82;100.00
29903;BME280;30288;50.514;9.678;2023-02-24T05:20:18;98026.25;;;5.80;100.00
29903;BME280;30288;50.514;9.678;2023-02-24T05:22:36;98025.41;;;5.81;100.00
29903;BME280;30288;50.514;9.678;2023-02-24T05:24:42;98029.56;;;5.82;100.00
29903;BME280;30288;50.514;9.678;2023-02-24T05:26:52;98017.97;;;5.78;100.00
29903;BME280;30288;50.514;9.678;2023-02-24T05:29:00;98014.69;;;5.76;100.00
29903;BME280;30288;50.514;9.678;2023-02-24T05:31:08;98020.50;;;5.77;100.00
29903;BME280;30288;50.514;9.678;2023-02-24T05:33:16;98017.16;;;5.78;100.00
29903;BME280;30288;50.514;9.678;2023-02-24T05:35:23;98019.66;;;5.76;100.00
29903;BME280;30288;50.514;9.678;2023-02-24T05:37:28;98015.50;;;5.77;100.00
29903;BME280;30288;50.514;9.678;2023-02-24T05:39:35;98010.50;;;5.77;100.00
29903;BME280;30288;50.514;9.678;2023-02-24T05:41:44;98011.41;;;5.74;100.00
29903;BME280;30288;50.514;9.678;2023-02-24T05:43:54;98008.94;;;5.72;100.00
29903;BME280;30288;50.514;9.678;2023-02-24T05:46:00;98004.75;;;5.73;100.00
29903;BME280;30288;50.514;9.678;2023-02-24T05:48:06;98010.50;;;5.77;100.00
29903;BME280;30288;50.514;9.678;2023-02-24T05:50:12;98007.19;;;5.76;100.00
29903;BME280;30288;50.514;9.678;2023-02-24T05:52:18;98003.09;;;5.72;100.00
29903;BME280;30288;50.514;9.678;2023-02-24T05:54:27;98005.59;;;5.72;100.00
29903;BME280;30288;50.514;9.678;2023-02-24T05:56:34;98000.63;;;5.70;100.00
29903;BME280;30288;50.514;9.678;2023-02-24T05:58:39;97998.19;;;5.69;100.00
29903;BME280;30288;50.514;9.678;2023-02-24T06:00:49;98001.44;;;5.71;100.00
29903;BME280;30288;50.514;9.678;2023-02-24T06:02:54;98001.53;;;5.68;100.00
29903;BME280;30288;50.514;9.678;2023-02-24T06:05:10;97994.84;;;5.70;100.00
29903;BME280;30288;50.514;9.678;2023-02-24T06:07:28;97992.34;;;5.68;100.00
29903;BME280;30288;50.514;9.678;2023-02-24T06:09:36;97997.34;;;5.70;100.00
29903;BME280;30288;50.514;9.678;2023-02-24T06:11:44;97992.34;;;5.70;100.00
29903;BME280;30288;50.514;9.678;2023-02-24T06:13:49;97984.03;;;5.69;100.00
29903;BME280;30288;50.514;9.678;2023-02-24T06:16:02;97993.13;;;5.72;100.00
29903;BME280;30288;50.514;9.678;2023-02-24T06:18:08;97985.69;;;5.69;100.00
29903;BME280;30288;50.514;9.678;2023-02-24T06:20:13;97991.53;;;5.68;100.00
29903;BME280;30288;50.514;9.678;2023-02-24T06:22:21;97999.00;;;5.69;100.00
29903;BME280;30288;50.514;9.678;2023-02-24T06:24:28;97989.84;;;5.70;100.00
29903;BME280;30288;50.514;9.678;2023-02-24T06:26:33;97988.97;;;5.71;100.00
29903;BME280;30288;50.514;9.678;2023-02-24T06:28:39;97988.13;;;5.72;100.00
29903;BME280;30288;50.514;9.678;2023-02-24T06:30:44;97983.94;;;5.72;100.00
29903;BME280;30288;50.514;9.678;2023-02-24T06:32:52;97989.69;;;5.76;100.00
29903;BME280;30288;50.514;9.678;2023-02-24T06:34:58;97991.47;;;5.71;100.00
29903;BME280;30288;50.514;9.678;2023-02-24T06:37:06;97984.78;;;5.73;100.00
29903;BME280;30288;50.514;9.678;2023-02-24T06:39:13;97990.63;;;5.72;100.00
29903;BME280;30288;50.514;9.678;2023-02-24T06:41:18;97991.47;;;5.71;100.00
29903;BME280;30288;50.514;9.678;2023-02-24T06:43:24;97988.88;;;5.76;100.00
29903;BME280;30288;50.514;9.678;2023-02-24T06:45:30;97994.47;;;5.88;100.00
29903;BME280;30288;50.514;9.678;2023-02-24T06:47:35;97989.22;;;6.00;100.00
29903;BME280;30288;50.514;9.678;2023-02-24T06:49:43;97988.19;;;6.09;100.00
29903;BME280;30288;50.514;9.678;2023-02-24T06:51:49;97985.56;;;6.13;100.00
29903;BME280;30288;50.514;9.678;2023-02-24T06:53:56;97989.69;;;6.18;100.00
29903;BME280;30288;50.514;9.678;2023-02-24T06:56:05;97984.63;;;6.19;100.00
29903;BME280;30288;50.514;9.678;2023-02-24T06:58:19;97984.72;;;6.16;100.00
29903;BME280;30288;50.514;9.678;2023-02-24T07:00:27;97983.97;;;6.12;100.00
29903;BME280;30288;50.514;9.678;2023-02-24T07:02:41;97985.72;;;6.07;100.00
29903;BME280;30288;50.514;9.678;2023-02-24T07:04:50;97982.34;;;6.10;100.00
29903;BME280;30288;50.514;9.678;2023-02-24T07:06:58;97980.69;;;6.09;100.00
29903;BME280;30288;50.514;9.678;2023-02-24T07:09:08;97980.56;;;6.13;100.00
29903;BME280;30288;50.514;9.678;2023-02-24T07:11:14;97988.88;;;6.15;100.00
29903;BME280;30288;50.514;9.678;2023-02-24T07:13:23;97987.94;;;6.21;100.00
29903;BME280;30288;50.514;9.678;2023-02-24T07:15:30;97988.81;;;6.19;100.00
29903;BME280;30288;50.514;9.678;2023-02-24T07:17:36;97986.81;;;6.33;100.00
29903;BME280;30288;50.514;9.678;2023-02-24T07:19:42;97980.25;;;6.29;100.00
29903;BME280;30288;50.514;9.678;2023-02-24T07:21:54;97980.25;;;6.29;100.00
29903;BME280;30288;50.514;9.678;2023-02-24T07:24:05;97981.09;;;6.28;100.00
29903;BME280;30288;50.514;9.678;2023-02-24T07:26:13;97975.03;;;6.38;100.00
29903;BME280;30288;50.514;9.678;2023-02-24T07:28:20;97976.97;;;6.60;100.00
29903;BME280;30288;50.514;9.678;2023-02-24T07:30:30;97973.81;;;6.54;100.00
29903;BME280;30288;50.514;9.678;2023-02-24T07:32:39;97966.53;;;6.45;100.00
29903;BME280;30288;50.514;9.678;2023-02-24T07:34:50;97969.88;;;6.44;100.00
29903;BME280;30288;50.514;9.678;2023-02-24T07:36:59;97964.56;;;6.56;100.00
29903;BME280;30288;50.514;9.678;2023-02-24T07:39:09;97963.84;;;6.52;100.00
29903;BME280;30288;50.514;9.678;2023-02-24T07:41:15;97961.34;;;6.52;100.00
29903;BME280;30288;50.514;9.678;2023-02-24T07:43:24;97958.09;;;6.49;100.00
29903;BME280;30288;50.514;9.678;2023-02-24T07:45:30;97959.78;;;6.47;100.00
29903;BME280;30288;50.514;9.678;2023-02-24T07:47:37;97956.38;;;6.51;100.00
29903;BME280;30288;50.514;9.678;2023-02-24T07:49:43;97948.81;;;6.52;100.00
29903;BME280;30288;50.514;9.678;2023-02-24T07:51:52;97958.66;;;6.60;100.00
29903;BME280;30288;50.514;9.678;2023-02-24T07:54:02;97956.16;;;6.60;100.00
29903;BME280;30288;50.514;9.678;2023-02-24T07:56:13;97956.97;;;6.60;100.00
29903;BME280;30288;50.514;9.678;2023-02-24T07:58:20;97956.06;;;6.63;100.00
29903;BME280;30288;50.514;9.678;2023-02-24T08:00:26;97951.94;;;6.62;100.00
29903;BME280;30288;50.514;9.678;2023-02-24T08:02:33;97954.28;;;6.68;100.00
29903;BME280;30288;50.514;9.678;2023-02-24T08:04:40;97949.38;;;6.65;100.00
29903;BME280;30288;50.514;9.678;2023-02-24T08:06:52;97965.53;;;6.84;100.00
29903;BME280;30288;50.514;9.678;2023-02-24T08:09:11;97959.16;;;6.74;100.00
29903;BME280;30288;50.514;9.678;2023-02-24T08:11:24;97944.28;;;6.68;100.00
29903;BME280;30288;50.514;9.678;2023-02-24T08:13:35;97949.44;;;6.62;100.00
29903;BME280;30288;50.514;9.678;2023-02-24T08:15:40;97935.25;;;6.63;100.00
29903;BME280;30288;50.514;9.678;2023-02-24T08:17:59;97933.94;;;6.80;100.00
29903;BME280;30288;50.514;9.678;2023-02-24T08:20:10;97937.91;;;6.89;100.00
29903;BME280;30288;50.514;9.678;2023-02-24T08:22:29;97923.69;;;6.89;100.00
29903;BME280;30288;50.514;9.678;2023-02-24T08:24:41;97918.53;;;6.95;100.00
29903;BME280;30288;50.514;9.678;2023-02-24T08:26:47;97916.31;;;7.16;100.00
29903;BME280;30288;50.514;9.678;2023-02-24T08:29:06;97917.72;;;7.26;100.00
29903;BME280;30288;50.514;9.678;2023-02-24T08:31:11;97913.53;;;7.26;100.00
29903;BME280;30288;50.514;9.678;2023-02-24T08:33:21;97911.16;;;7.22;100.00
29903;BME280;30288;50.514;9.678;2023-02-24T08:35:33;97903.69;;;7.20;100.00
29903;BME280;30288;50.514;9.678;2023-02-24T08:37:39;97909.25;;;7.30;100.00
29903;BME280;30288;50.514;9.678;2023-02-24T08:39:51;97905.75;;;7.35;100.00
29903;BME280;30288;50.514;9.678;2023-02-24T08:41:57;97895.34;;;7.49;100.00
29903;BME280;30288;50.514;9.678;2023-02-24T08:44:04;97903.97;;;7.39;100.00
29903;BME280;30288;50.514;9.678;2023-02-24T08:46:19;97896.47;;;7.39;100.00
29903;BME280;30288;50.514;9.678;2023-02-24T08:48:32;97895.38;;;7.47;100.00
29903;BME280;30288;50.514;9.678;2023-02-24T08:50:43;97897.00;;;7.50;100.00
29903;BME280;30288;50.514;9.678;2023-02-24T08:52:50;97887.31;;;7.38;100.00
29903;BME280;30288;50.514;9.678;2023-02-24T08:54:57;97894.78;;;7.39;100.00
29903;BME280;30288;50.514;9.678;2023-02-24T08:57:06;97895.59;;;7.40;100.00
29903;BME280;30288;50.514;9.678;2023-02-24T08:59:18;97891.97;;;7.50;100.00
29903;BME280;30288;50.514;9.678;2023-02-24T09:01:39;97889.22;;;7.58;100.00
29903;BME280;30288;50.514;9.678;2023-02-24T09:04:08;97895.84;;;7.60;100.00
29903;BME280;30288;50.514;9.678;2023-02-24T09:06:25;97886.59;;;7.62;100.00
29903;BME280;30288;50.514;9.678;2023-02-24T09:08:39;97879.94;;;7.61;100.00
29903;BME280;30288;50.514;9.678;2023-02-24T09:10:47;97881.72;;;7.58;100.00
29903;BME280;30288;50.514;9.678;2023-02-24T09:12:53;97877.44;;;7.61;100.00
29903;BME280;30288;50.514;9.678;2023-02-24T09:15:01;97877.09;;;7.72;100.00
29903;BME280;30288;50.514;9.678;2023-02-24T09:17:13;97874.47;;;7.76;100.00
29903;BME280;30288;50.514;9.678;2023-02-24T09:19:21;97862.97;;;7.97;100.00
29903;BME280;30288;50.514;9.678;2023-02-24T09:22:05;97861.66;;;8.12;100.00
29903;BME280;30288;50.514;9.678;2023-02-24T09:24:25;97846.66;;;8.10;100.00
29903;BME280;30288;50.514;9.678;2023-02-24T09:26:33;97853.25;;;8.13;100.00
29903;BME280;30288;50.514;9.678;2023-02-24T09:28:44;97849.78;;;8.17;100.00
29903;BME280;30288;50.514;9.678;2023-02-24T09:30:59;97839.75;;;8.17;100.00
29903;BME280;30288;50.514;9.678;2023-02-24T09:33:13;97833.78;;;7.95;100.00
29903;BME280;30288;50.514;9.678;2023-02-24T09:35:23;97833.63;;;7.99;100.00
29903;BME280;30288;50.514;9.678;2023-02-24T09:37:32;97831.94;;;8.00;100.00
29903;BME280;30288;50.514;9.678;2023-02-24T09:39:38;97830.53;;;7.93;100.00
29903;BME280;30288;50.514;9.678;2023-02-24T09:41:59;97827.59;;;8.05;100.00
29903;BME280;30288;50.514;9.678;2023-02-24T09:44:26;97814.34;;;8.52;100.00
29903;BME280;30288;50.514;9.678;2023-02-24T09:46:41;97795.91;;;8.76;100.00
29903;BME280;30288;50.514;9.678;2023-02-24T09:49:01;97807.38;;;8.84;100.00
29903;BME280;30288;50.514;9.678;2023-02-24T09:51:15;97801.69;;;9.02;100.00
29903;BME280;30288;50.514;9.678;2023-02-24T09:53:33;97799.84;;;9.07;100.00
29903;BME280;30288;50.514;9.678;2023-02-24T09:55:58;97789.03;;;9.48;100.00
29903;BME280;30288;50.514;9.678;2023-02-24T09:58:19;97784.66;;;9.53;100.00
29903;BME280;30288;50.514;9.678;2023-02-24T10:00:44;97779.97;;;9.44;100.00
29903;BME280;30288;50.514;9.678;2023-02-24T10:03:02;97776.81;;;9.39;100.00
29903;BME280;30288;50.514;9.678;2023-02-24T10:05:26;97774.41;;;9.36;100.00
29903;BME280;30288;50.514;9.678;2023-02-24T10:07:41;97772.03;;;9.33;100.00
29903;BME280;30288;50.514;9.678;2023-02-24T10:09:51;97767.09;;;9.74;100.00
29903;BME280;30288;50.514;9.678;2023-02-24T10:12:00;97772.34;;;9.68;100.00
29903;BME280;30288;50.514;9.678;2023-02-24T10:14:11;97762.75;;;9.55;100.00
29903;BME280;30288;50.514;9.678;2023-02-24T10:16:22;97757.41;;;9.64;100.00
29903;BME280;30288;50.514;9.678;2023-02-24T10:18:48;97743.06;;;9.87;100.00
29903;BME280;30288;50.514;9.678;2023-02-24T10:21:16;97741.25;;;10.10;100.00
29903;BME280;30288;50.514;9.678;2023-02-24T10:23:43;97732.25;;;10.05;100.00
29903;BME280;30288;50.514;9.678;2023-02-24T10:26:03;97739.81;;;9.64;100.00
29903;BME280;30288;50.514;9.678;2023-02-24T10:28:20;97738.94;;;9.44;100.00
29903;BME280;30288;50.514;9.678;2023-02-24T10:30:43;97738.72;;;9.28;100.00
29903;BME280;30288;50.514;9.678;2023-02-24T10:32:54;97744.31;;;9.13;100.00
29903;BME280;30288;50.514;9.678;2023-02-24T10:35:01;97731.84;;;9.11;100.00
29903;BME280;30288;50.514;9.678;2023-02-24T10:37:13;97725.06;;;9.55;100.00
29903;BME280;30288;50.514;9.678;2023-02-24T10:39:29;97723.81;;;9.65;100.00
29903;BME280;30288;50.514;9.678;2023-02-24T10:41:43;97725.97;;;9.54;100.00
29903;BME280;30288;50.514;9.678;2023-02-24T10:43:54;97720.94;;;9.54;100.00
29903;BME280;30288;50.514;9.678;2023-02-24T10:46:02;97716.28;;;9.45;100.00
29903;BME280;30288;50.514;9.678;2023-02-24T10:48:24;97702.44;;;9.55;100.00
29903;BME280;30288;50.514;9.678;2023-02-24T10:50:44;97710.75;;;9.57;100.00
29903;BME280;30288;50.514;9.678;2023-02-24T10:53:05;97704.31;;;9.50;100.00
29903;BME280;30288;50.514;9.678;2023-02-24T10:55:32;97702.56;;;9.52;100.00
29903;BME280;30288;50.514;9.678;2023-02-24T10:57:58;97690.28;;;9.66;100.00
29903;BME280;30288;50.514;9.678;2023-02-24T11:00:15;97682.84;;;9.84;100.00
29903;BME280;30288;50.514;9.678;2023-02-24T11:02:44;97686.38;;;9.80;100.00
29903;BME280;30288;50.514;9.678;2023-02-24T11:05:07;97675.28;;;9.84;100.00
29903;BME280;30288;50.514;9.678;2023-02-24T11:07:27;97663.72;;;9.80;100.00
29903;BME280;30288;50.514;9.678;2023-02-24T11:09:45;97664.09;;;9.91;100.00
29903;BME280;30288;50.514;9.678;2023-02-24T11:11:55;97663.97;;;9.94;100.00
29903;BME280;30288;50.514;9.678;2023-02-24T11:14:16;97670.53;;;9.78;100.00
29903;BME280;30288;50.514;9.678;2023-02-24T11:16:43;97660.63;;;9.54;100.00
29903;BME280;30288;50.514;9.678;2023-02-24T11:19:09;97673.59;;;9.23;100.00
29903;BME280;30288;50.514;9.678;2023-02-24T11:21:16;97655.72;;;9.31;100.00
29903;BME280;30288;50.514;9.678;2023-02-24T11:23:26;97666.88;;;9.24;100.00
29903;BME280;30288;50.514;9.678;2023-02-24T11:25:37;97643.16;;;9.31;100.00
29903;BME280;30288;50.514;9.678;2023-02-24T11:27:45;97643.47;;;9.44;100.00
29903;BME280;30288;50.514;9.678;2023-02-24T11:30:10;97638.63;;;9.59;100.00
29903;BME280;30288;50.514;9.678;2023-02-24T11:32:36;97625.03;;;9.63;100.00
29903;BME280;30288;50.514;9.678;2023-02-24T11:34:54;97631.19;;;9.77;100.00
29903;BME280;30288;50.514;9.678;2023-02-24T11:37:13;97622.47;;;9.84;100.00
29903;BME280;30288;50.514;9.678;2023-02-24T11:39:46;97610.09;;;9.79;100.00